createdAt,value
2018-04-29T00:00:48.320Z,73.00
2018-04-29T00:03:16.544Z,72.40
2018-04-29T00:05:44.004Z,72.40
2018-04-29T00:08:11.465Z,73.00
2018-04-29T00:10:38.924Z,73.00
2018-04-29T00:13:06.385Z,72.90
2018-04-29T00:15:33.845Z,73.20
2018-04-29T00:18:01.309Z,73.60
2018-04-29T00:20:28.802Z,74.20
2018-04-29T00:22:56.365Z,74.30
2018-04-29T00:25:24.595Z,75.00
2018-04-29T00:27:52.096Z,75.00
2018-04-29T00:30:19.560Z,75.10
2018-04-29T00:32:47.018Z,75.20
2018-04-29T00:35:14.581Z,75.30
2018-04-29T00:37:42.042Z,75.30
2018-04-29T00:40:09.504Z,75.40
2018-04-29T00:42:37.117Z,75.00
2018-04-29T00:45:04.566Z,75.30
2018-04-29T00:47:32.072Z,75.30
2018-04-29T00:49:59.544Z,74.20
2018-04-29T00:52:27.054Z,73.70
2018-04-29T00:54:54.550Z,73.90
2018-04-29T00:57:22.104Z,73.90
2018-04-29T00:59:49.576Z,74.30
2018-04-29T01:02:17.036Z,74.40
2018-04-29T01:04:44.545Z,74.60
2018-04-29T01:07:12.040Z,73.90
2018-04-29T01:09:39.506Z,74.10
2018-04-29T01:12:06.976Z,74.80
2018-04-29T01:14:34.521Z,74.90
2018-04-29T01:17:01.998Z,75.50
2018-04-29T01:19:29.536Z,75.50
2018-04-29T01:21:57.104Z,75.90
2018-04-29T01:24:24.565Z,75.30
2018-04-29T01:26:52.029Z,75.40
2018-04-29T01:29:19.484Z,75.20
2018-04-29T01:31:46.941Z,75.50
2018-04-29T01:34:15.171Z,74.80
2018-04-29T01:36:42.629Z,74.70
2018-04-29T01:39:10.124Z,75.10
2018-04-29T01:41:37.685Z,74.80
2018-04-29T01:44:05.246Z,75.10
2018-04-29T01:46:32.705Z,75.80
2018-04-29T01:49:00.173Z,78.10
2018-04-29T01:51:27.722Z,78.90
2018-04-29T01:53:55.181Z,78.90
2018-04-29T01:56:22.637Z,78.60
2018-04-29T01:58:50.357Z,77.70
2018-04-29T02:01:17.829Z,76.80
2018-04-29T02:03:45.285Z,75.90
2018-04-29T02:06:12.752Z,74.80
2018-04-29T02:08:40.219Z,74.60
2018-04-29T02:11:07.685Z,74.10
2018-04-29T02:13:35.250Z,74.40
2018-04-29T02:16:02.809Z,74.70
2018-04-29T02:18:30.372Z,74.70
2018-04-29T02:20:57.933Z,75.00
2018-04-29T02:23:25.393Z,75.10
2018-04-29T02:25:52.963Z,75.30
2018-04-29T02:28:20.613Z,75.30
2018-04-29T02:30:48.179Z,75.40
2018-04-29T02:33:15.649Z,75.50
2018-04-29T02:35:43.113Z,75.50
2018-04-29T02:38:11.355Z,75.30
2018-04-29T02:40:38.830Z,75.20
2018-04-29T02:43:06.301Z,75.40
2018-04-29T02:45:34.533Z,75.80
2018-04-29T02:48:02.024Z,75.80
2018-04-29T02:50:29.495Z,75.80
2018-04-29T02:52:56.980Z,76.00
2018-04-29T02:55:25.221Z,76.10
2018-04-29T02:57:52.672Z,76.10
2018-04-29T03:00:20.128Z,76.00
2018-04-29T03:02:47.692Z,75.40
2018-04-29T03:05:15.149Z,75.40
2018-04-29T03:07:42.708Z,75.40
2018-04-29T03:10:10.165Z,75.10
2018-04-29T03:12:37.648Z,75.10
2018-04-29T03:15:05.886Z,75.10
2018-04-29T03:17:33.361Z,75.10
2018-04-29T03:20:01.638Z,75.20
2018-04-29T03:22:29.189Z,75.20
2018-04-29T03:24:56.753Z,75.10
2018-04-29T03:27:24.216Z,75.00
2018-04-29T03:29:51.676Z,75.00
2018-04-29T03:32:19.143Z,75.40
2018-04-29T03:34:46.684Z,74.90
2018-04-29T03:37:14.153Z,74.70
2018-04-29T03:39:41.704Z,75.10
2018-04-29T03:42:09.169Z,75.30
2018-04-29T03:44:36.632Z,75.50
2018-04-29T03:47:04.185Z,75.80
2018-04-29T03:49:31.746Z,76.00
2018-04-29T03:51:59.212Z,76.20
2018-04-29T03:54:26.668Z,76.40
2018-04-29T03:57:00.053Z,76.50
2018-04-29T03:59:39.601Z,76.60
2018-04-29T04:02:19.449Z,76.90
2018-04-29T04:04:46.909Z,77.20
2018-04-29T04:07:14.468Z,76.90
2018-04-29T04:09:42.043Z,76.90
2018-04-29T04:12:10.417Z,76.90
2018-04-29T04:14:37.972Z,77.70
2018-04-29T04:17:05.432Z,77.50
2018-04-29T04:19:32.984Z,77.20
2018-04-29T04:22:00.547Z,77.30
2018-04-29T04:24:28.009Z,77.00
2018-04-29T04:26:55.541Z,77.00
2018-04-29T04:29:23.017Z,77.20
2018-04-29T04:31:50.476Z,76.90
2018-04-29T04:34:18.128Z,76.70
2018-04-29T04:36:45.500Z,76.70
2018-04-29T04:39:12.968Z,76.90
2018-04-29T04:41:40.428Z,77.20
2018-04-29T04:44:08.033Z,76.90
2018-04-29T04:46:35.489Z,76.70
2018-04-29T04:49:02.949Z,76.50
2018-04-29T04:51:30.408Z,76.50
2018-04-29T04:53:57.904Z,76.50
2018-04-29T04:56:25.382Z,76.60
2018-04-29T04:58:52.925Z,76.30
2018-04-29T05:01:20.485Z,75.80
2018-04-29T05:03:47.953Z,75.90
2018-04-29T05:06:15.507Z,75.60
2018-04-29T05:08:43.069Z,75.30
2018-04-29T05:11:10.537Z,75.30
2018-04-29T05:13:38.019Z,75.40
2018-04-29T05:16:06.256Z,75.00
2018-04-29T05:18:33.720Z,74.90
2018-04-29T05:21:01.283Z,74.50
2018-04-29T05:23:28.837Z,74.60
2018-04-29T05:25:56.296Z,74.20
2018-04-29T05:28:23.765Z,73.90
2018-04-29T05:30:51.224Z,73.60
2018-04-29T05:33:18.680Z,73.20
2018-04-29T05:35:46.136Z,72.90
2018-04-29T05:38:13.686Z,71.80
2018-04-29T05:40:41.246Z,72.20
2018-04-29T05:43:09.473Z,71.50
2018-04-29T05:45:36.934Z,71.50
2018-04-29T05:48:04.444Z,71.30
2018-04-29T05:50:32.000Z,71.10
2018-04-29T05:52:59.484Z,70.80
2018-04-29T05:55:27.721Z,70.30
2018-04-29T05:57:55.193Z,70.20
2018-04-29T06:00:23.657Z,70.00
2018-04-29T06:02:51.040Z,70.10
2018-04-29T06:05:18.500Z,70.10
2018-04-29T06:07:45.961Z,70.00
2018-04-29T06:10:13.421Z,70.00
2018-04-29T06:12:40.969Z,70.30
2018-04-29T06:15:08.428Z,69.70
2018-04-29T06:17:36.653Z,68.90
2018-04-29T06:20:04.161Z,68.90
2018-04-29T06:22:31.616Z,68.00
2018-04-29T06:24:59.185Z,65.90
2018-04-29T06:27:26.747Z,65.30
2018-04-29T06:29:54.207Z,65.10
2018-04-29T06:32:21.753Z,64.80
2018-04-29T06:34:49.223Z,63.90
2018-04-29T06:37:16.680Z,62.60
2018-04-29T06:39:44.241Z,61.60
2018-04-29T06:42:11.792Z,61.10
2018-04-29T06:44:39.352Z,60.30
2018-04-29T06:47:06.813Z,61.20
2018-04-29T06:49:34.285Z,62.20
2018-04-29T06:52:01.828Z,62.20
2018-04-29T06:54:29.390Z,61.30
2018-04-29T06:56:56.964Z,61.40
2018-04-29T06:59:24.422Z,61.60
2018-04-29T07:01:51.968Z,60.70
2018-04-29T07:04:19.517Z,61.00
2018-04-29T07:06:47.102Z,59.30
2018-04-29T07:09:14.552Z,58.60
2018-04-29T07:11:42.025Z,58.80
2018-04-29T07:14:09.570Z,58.00
2018-04-29T07:16:37.802Z,57.50
2018-04-29T07:19:05.258Z,57.40
2018-04-29T07:21:32.767Z,56.90
2018-04-29T07:24:00.222Z,57.10
2018-04-29T07:26:27.734Z,57.30
2018-04-29T07:28:55.190Z,57.20
2018-04-29T07:31:22.654Z,56.60
2018-04-29T07:33:50.158Z,56.60
2018-04-29T07:36:17.726Z,56.40
2018-04-29T07:38:45.273Z,56.60
2018-04-29T07:41:12.732Z,55.30
2018-04-29T07:43:40.290Z,56.00
2018-04-29T07:46:07.848Z,55.20
2018-04-29T07:48:35.328Z,55.10
2018-04-29T07:51:03.549Z,54.50
2018-04-29T07:53:31.005Z,54.50
2018-04-29T07:55:58.475Z,53.70
2018-04-29T07:58:25.937Z,54.40
2018-04-29T08:00:53.465Z,52.60
2018-04-29T08:03:20.885Z,53.30
2018-04-29T08:05:48.437Z,53.10
2018-04-29T08:08:15.897Z,53.90
2018-04-29T08:10:43.357Z,52.80
2018-04-29T08:13:10.818Z,54.30
2018-04-29T08:15:39.106Z,53.50
2018-04-29T08:18:06.648Z,53.60
2018-04-29T08:20:34.210Z,54.00
2018-04-29T08:23:01.665Z,54.40
2018-04-29T08:25:29.233Z,54.30
2018-04-29T08:27:56.685Z,55.10
2018-04-29T08:30:24.179Z,54.50
2018-04-29T08:32:51.707Z,54.30
2018-04-29T08:35:19.268Z,54.80
2018-04-29T08:37:46.724Z,54.30
2018-04-29T08:40:14.181Z,53.80
2018-04-29T08:42:41.653Z,52.20
2018-04-29T08:45:09.193Z,50.80
2018-04-29T08:47:36.765Z,52.40
2018-04-29T08:50:04.231Z,51.20
2018-04-29T08:52:31.680Z,51.30
2018-04-29T08:54:59.191Z,51.30
2018-04-29T08:57:26.604Z,50.60
2018-04-29T08:59:54.149Z,51.20
2018-04-29T09:02:21.609Z,51.60
2018-04-29T09:04:49.166Z,50.10
2018-04-29T09:07:16.629Z,49.60
2018-04-29T09:09:44.089Z,49.30
2018-04-29T09:12:11.641Z,50.30
2018-04-29T09:14:39.097Z,49.40
2018-04-29T09:17:06.566Z,49.50
2018-04-29T09:19:34.121Z,48.10
2018-04-29T09:22:01.577Z,48.40
2018-04-29T09:24:29.143Z,48.00
2018-04-29T09:26:56.597Z,47.00
2018-04-29T09:29:24.873Z,45.30
2018-04-29T09:31:52.442Z,45.30
2018-04-29T09:34:20.000Z,46.20
2018-04-29T09:36:47.561Z,46.50
2018-04-29T09:39:15.118Z,46.00
2018-04-29T09:41:42.568Z,45.60
2018-04-29T09:44:10.025Z,47.00
2018-04-29T09:46:37.589Z,46.40
2018-04-29T09:49:05.065Z,46.50
2018-04-29T09:51:32.519Z,45.20
2018-04-29T09:54:00.069Z,46.00
2018-04-29T09:56:27.625Z,45.40
2018-04-29T09:58:55.085Z,45.40
2018-04-29T10:01:25.110Z,46.90
2018-04-29T10:03:52.578Z,44.80
2018-04-29T10:06:20.038Z,45.10
2018-04-29T10:08:47.576Z,45.80
2018-04-29T10:11:15.104Z,45.70
2018-04-29T10:13:42.601Z,45.80
2018-04-29T10:16:10.064Z,45.40
2018-04-29T10:18:37.517Z,44.90
2018-04-29T10:21:04.974Z,45.40
2018-04-29T10:23:32.540Z,44.50
2018-04-29T10:25:59.989Z,44.60
2018-04-29T10:28:27.550Z,44.80
2018-04-29T10:30:55.005Z,45.30
2018-04-29T10:33:23.289Z,46.50
2018-04-29T10:35:51.513Z,45.30
2018-04-29T10:38:18.968Z,45.30
2018-04-29T10:40:46.429Z,44.10
2018-04-29T10:43:13.936Z,44.00
2018-04-29T10:45:41.498Z,44.50
2018-04-29T10:48:08.958Z,43.20
2018-04-29T10:50:36.434Z,43.80
2018-04-29T10:53:03.904Z,43.60
2018-04-29T10:55:32.128Z,42.60
2018-04-29T10:57:59.596Z,42.60
2018-04-29T11:00:27.069Z,42.70
2018-04-29T11:02:54.536Z,42.30
2018-04-29T11:05:22.121Z,42.80
2018-04-29T11:07:50.345Z,40.60
2018-04-29T11:10:17.809Z,40.60
2018-04-29T11:12:45.381Z,41.50
2018-04-29T11:15:13.654Z,40.00
2018-04-29T11:17:41.113Z,40.00
2018-04-29T11:20:08.673Z,42.90
2018-04-29T11:22:36.229Z,39.50
2018-04-29T11:25:03.688Z,40.50
2018-04-29T11:27:31.148Z,41.10
2018-04-29T11:29:58.721Z,40.20
2018-04-29T11:32:26.272Z,40.50
2018-04-29T11:34:53.832Z,39.80
2018-04-29T11:37:21.388Z,38.10
2018-04-29T11:39:49.616Z,41.40
2018-04-29T11:42:17.079Z,41.40
2018-04-29T11:44:44.589Z,40.00
2018-04-29T11:47:12.821Z,39.80
2018-04-29T11:49:40.273Z,39.10
2018-04-29T11:52:07.739Z,38.70
2018-04-29T11:54:35.234Z,38.90
2018-04-29T11:57:02.709Z,38.70
2018-04-29T11:59:30.964Z,36.90
2018-04-29T12:01:58.575Z,37.30
2018-04-29T12:04:26.005Z,37.20
2018-04-29T12:06:54.333Z,38.10
2018-04-29T12:09:21.823Z,38.10
2018-04-29T12:11:49.280Z,37.50
2018-04-29T12:14:16.748Z,37.40
2018-04-29T12:16:44.304Z,36.70
2018-04-29T12:19:11.778Z,37.60
2018-04-29T12:21:39.244Z,37.80
2018-04-29T12:24:07.560Z,37.60
2018-04-29T12:26:35.028Z,37.00
2018-04-29T12:29:02.542Z,34.90
2018-04-29T12:31:30.771Z,36.00
2018-04-29T12:33:58.224Z,36.00
2018-04-29T12:36:25.688Z,34.80
2018-04-29T12:38:53.156Z,36.10
2018-04-29T12:41:20.727Z,33.00
2018-04-29T12:43:48.294Z,33.30
2018-04-29T12:46:15.748Z,32.70
2018-04-29T12:48:43.301Z,34.00
2018-04-29T12:51:10.865Z,34.40
2018-04-29T12:53:38.337Z,35.40
2018-04-29T12:56:06.600Z,33.70
2018-04-29T12:58:34.078Z,33.80
2018-04-29T13:01:02.321Z,35.40
2018-04-29T13:03:29.792Z,35.30
2018-04-29T13:05:58.132Z,33.70
2018-04-29T13:08:25.597Z,33.80
2018-04-29T13:10:53.093Z,34.30
2018-04-29T13:13:20.657Z,34.30
2018-04-29T13:15:48.117Z,34.00
2018-04-29T13:18:16.385Z,33.70
2018-04-29T13:20:43.845Z,33.80
2018-04-29T13:23:12.124Z,33.30
2018-04-29T13:25:39.681Z,33.30
2018-04-29T13:28:07.236Z,33.10
2018-04-29T13:30:34.704Z,33.60
2018-04-29T13:33:02.262Z,33.60
2018-04-29T13:35:29.821Z,33.40
2018-04-29T13:37:57.381Z,34.30
2018-04-29T13:40:24.836Z,32.70
2018-04-29T13:42:52.300Z,32.90
2018-04-29T13:45:19.857Z,32.50
2018-04-29T13:47:47.320Z,31.80
2018-04-29T13:50:15.546Z,32.20
2018-04-29T13:52:43.009Z,32.30
2018-04-29T13:55:10.476Z,31.70
2018-04-29T13:57:37.968Z,32.30
2018-04-29T14:00:06.201Z,32.10
2018-04-29T14:02:33.704Z,32.10
2018-04-29T14:05:02.038Z,31.90
2018-04-29T14:07:29.540Z,31.90
2018-04-29T14:09:56.999Z,33.40
2018-04-29T14:12:24.553Z,30.40
2018-04-29T14:14:52.112Z,32.00
2018-04-29T14:17:19.677Z,32.90
2018-04-29T14:19:47.259Z,32.10
2018-04-29T14:22:15.477Z,32.90
2018-04-29T14:24:42.933Z,33.00
2018-04-29T14:27:10.433Z,32.00
2018-04-29T14:29:38.695Z,32.40
2018-04-29T14:32:06.149Z,32.40
2018-04-29T14:34:33.609Z,32.10
2018-04-29T14:37:01.141Z,31.60
2018-04-29T14:39:28.641Z,31.50
2018-04-29T14:41:56.204Z,32.70
2018-04-29T14:44:23.765Z,31.50
2018-04-29T14:46:51.238Z,32.00
2018-04-29T14:49:19.496Z,33.20
2018-04-29T14:51:47.017Z,32.50
2018-04-29T14:54:14.464Z,33.40
2018-04-29T14:56:41.933Z,31.80
2018-04-29T14:59:09.428Z,32.80
2018-04-29T15:01:36.884Z,32.40
2018-04-29T15:04:04.344Z,31.20
2018-04-29T15:06:31.809Z,32.10
2018-04-29T15:08:59.272Z,32.70
2018-04-29T15:11:27.545Z,32.50
2018-04-29T15:13:56.296Z,30.80
2018-04-29T15:16:23.772Z,30.80
2018-04-29T15:18:58.113Z,27.60
2018-04-29T15:21:26.390Z,28.40
2018-04-29T15:23:54.662Z,27.40
2018-04-29T15:26:22.126Z,27.50
2018-04-29T15:28:50.357Z,27.50
2018-04-29T15:31:17.860Z,27.50
2018-04-29T15:33:46.094Z,26.10
2018-04-29T15:36:13.552Z,26.10
2018-04-29T15:38:41.109Z,25.90
2018-04-29T15:41:08.561Z,25.30
2018-04-29T15:43:36.028Z,25.80
2018-04-29T15:46:03.488Z,26.50
2018-04-29T15:48:30.989Z,26.70
2018-04-29T15:50:59.218Z,27.00
2018-04-29T15:53:26.721Z,27.00
2018-04-29T15:55:54.189Z,26.20
2018-04-29T15:58:22.429Z,27.80
2018-04-29T16:00:49.900Z,27.20
2018-04-29T16:03:17.378Z,27.70
2018-04-29T16:05:44.933Z,27.70
2018-04-29T16:08:12.405Z,28.40
2018-04-29T16:10:40.637Z,27.40
2018-04-29T16:13:08.126Z,27.50
2018-04-29T16:15:35.640Z,27.10
2018-04-29T16:18:03.095Z,28.60
2018-04-29T16:20:30.663Z,28.80
2018-04-29T16:22:58.118Z,29.30
2018-04-29T16:25:25.579Z,28.80
2018-04-29T16:27:53.040Z,28.50
2018-04-29T16:30:20.527Z,29.30
2018-04-29T16:32:48.104Z,29.00
2018-04-29T16:35:15.657Z,30.10
2018-04-29T16:37:43.121Z,29.80
2018-04-29T16:40:10.583Z,29.40
2018-04-29T16:42:38.045Z,30.80
2018-04-29T16:45:06.272Z,30.50
2018-04-29T16:47:33.736Z,30.40
2018-04-29T16:50:01.205Z,30.40
2018-04-29T16:52:28.673Z,29.90
2018-04-29T16:54:56.133Z,30.20
2018-04-29T16:57:23.596Z,29.70
2018-04-29T16:59:51.161Z,29.90
2018-04-29T17:02:18.721Z,31.00
2018-04-29T17:04:46.185Z,30.00
2018-04-29T17:07:13.644Z,29.20
2018-04-29T17:09:41.301Z,29.10
2018-04-29T17:12:08.761Z,30.10
2018-04-29T17:14:36.231Z,30.70
2018-04-29T17:17:03.839Z,30.00
2018-04-29T17:19:31.333Z,30.30
2018-04-29T17:21:58.893Z,30.80
2018-04-29T17:24:26.455Z,32.10
2018-04-29T17:26:54.009Z,31.40
2018-04-29T17:29:21.490Z,31.00
2018-04-29T17:31:49.029Z,31.20
2018-04-29T17:34:16.495Z,32.10
2018-04-29T17:36:43.960Z,31.60
2018-04-29T17:39:11.421Z,30.80
2018-04-29T17:41:39.025Z,30.70
2018-04-29T17:44:06.511Z,31.50
2018-04-29T17:46:33.951Z,30.90
2018-04-29T17:49:02.209Z,31.90
2018-04-29T17:51:29.729Z,30.60
2018-04-29T17:53:57.281Z,32.30
2018-04-29T17:56:24.740Z,32.80
2018-04-29T17:58:52.318Z,30.80
2018-04-29T18:01:19.788Z,31.20
2018-04-29T18:03:48.033Z,31.50
2018-04-29T18:06:15.597Z,31.60
2018-04-29T18:08:43.060Z,32.00
2018-04-29T18:11:10.526Z,32.70
2018-04-29T18:16:11.527Z,32.70
2018-04-29T18:18:39.024Z,33.10
2018-04-29T18:21:06.557Z,32.60
2018-04-29T18:23:34.717Z,32.80
2018-04-29T18:26:02.191Z,32.80
2018-04-29T18:28:29.661Z,32.50
2018-04-29T18:30:57.132Z,32.40
2018-04-29T18:33:24.593Z,33.70
2018-04-29T18:35:52.868Z,33.30
2018-04-29T18:38:20.338Z,33.30
2018-04-29T18:40:47.797Z,33.10
2018-04-29T18:43:15.351Z,33.10
2018-04-29T18:45:42.813Z,33.90
2018-04-29T18:48:11.084Z,33.60
2018-04-29T18:50:38.662Z,33.50
2018-04-29T18:53:06.785Z,33.80
2018-04-29T18:55:34.281Z,33.70
2018-04-29T18:58:01.771Z,34.30
2018-04-29T19:00:29.297Z,34.50
2018-04-29T19:02:56.752Z,33.60
2018-04-29T19:08:25.874Z,33.90
2018-04-29T19:10:53.332Z,34.20
2018-04-29T19:13:20.885Z,34.20
2018-04-29T19:15:48.348Z,34.90
2018-04-29T19:18:15.905Z,34.60
2018-04-29T19:20:43.373Z,36.00
2018-04-29T19:23:10.929Z,34.30
2018-04-29T19:25:38.397Z,34.60
2018-04-29T19:28:05.945Z,34.50
2018-04-29T19:30:33.505Z,34.30
2018-04-29T19:33:01.730Z,34.90
2018-04-29T19:35:29.245Z,34.80
2018-04-29T19:37:56.802Z,35.00
2018-04-29T19:40:24.262Z,35.30
2018-04-29T19:42:51.820Z,35.40
2018-04-29T19:45:19.376Z,36.00
2018-04-29T19:47:46.841Z,36.20
2018-04-29T19:50:14.320Z,36.00
2018-04-29T19:52:42.558Z,36.00
2018-04-29T19:55:10.036Z,36.00
2018-04-29T19:57:37.590Z,36.20
2018-04-29T20:00:05.060Z,36.00
2018-04-29T20:02:32.520Z,36.80
2018-04-29T20:05:00.074Z,36.50
2018-04-29T20:07:27.532Z,36.90
2018-04-29T20:09:55.761Z,37.10
2018-04-29T20:12:23.256Z,37.10
2018-04-29T20:14:50.713Z,36.80
2018-04-29T20:17:18.180Z,36.50
2018-04-29T20:19:45.741Z,36.80
2018-04-29T20:22:13.303Z,36.10
2018-04-29T20:24:40.877Z,36.00
2018-04-29T20:27:08.333Z,36.60
2018-04-29T20:29:35.880Z,36.70
2018-04-29T20:32:03.457Z,36.60
2018-04-29T20:34:30.998Z,36.90
2018-04-29T20:36:58.553Z,37.10
2018-04-29T20:39:26.017Z,37.10
2018-04-29T20:41:53.576Z,37.30
2018-04-29T20:44:21.049Z,37.00
2018-04-29T20:46:48.513Z,37.30
2018-04-29T20:49:16.775Z,37.40
2018-04-29T20:51:45.053Z,37.40
2018-04-29T20:54:12.608Z,37.40
2018-04-29T20:56:40.086Z,37.30
2018-04-29T20:59:07.542Z,37.80
2018-04-29T21:01:35.001Z,37.60
2018-04-29T21:04:03.249Z,37.70
2018-04-29T21:06:30.821Z,37.60
2018-04-29T21:08:58.385Z,37.50
2018-04-29T21:11:25.941Z,37.90
2018-04-29T21:13:53.400Z,38.10
2018-04-29T21:16:21.633Z,38.40
2018-04-29T21:18:49.097Z,38.50
2018-04-29T21:21:16.557Z,38.40
2018-04-29T21:23:44.013Z,38.70
2018-04-29T21:26:11.509Z,39.00
2018-04-29T21:28:39.068Z,38.80
2018-04-29T21:31:06.530Z,38.70
2018-04-29T21:33:33.988Z,39.20
2018-04-29T21:36:01.502Z,39.20
2018-04-29T21:38:28.997Z,39.50
2018-04-29T21:40:56.461Z,39.50
2018-04-29T21:43:24.028Z,39.60
2018-04-29T21:45:51.575Z,39.80
2018-04-29T21:48:19.142Z,40.10
2018-04-29T21:50:46.612Z,40.00
2018-04-29T21:53:14.072Z,40.00
2018-04-29T21:55:41.532Z,40.90
2018-04-29T21:58:08.999Z,40.70
2018-04-29T22:00:37.219Z,40.50
2018-04-29T22:03:04.708Z,40.50
2018-04-29T22:05:32.268Z,40.60
2018-04-29T22:07:59.835Z,41.00
2018-04-29T22:10:27.288Z,41.00
2018-04-29T22:12:54.852Z,40.90
2018-04-29T22:15:22.309Z,40.90
2018-04-29T22:17:49.773Z,40.90
2018-04-29T22:20:17.233Z,40.80
2018-04-29T22:22:44.780Z,40.40
2018-04-29T22:25:12.345Z,40.90
2018-04-29T22:27:39.792Z,40.70
2018-04-29T22:30:07.261Z,40.90
2018-04-29T22:32:34.725Z,40.90
2018-04-29T22:35:02.189Z,41.40
2018-04-29T22:37:30.453Z,41.20
2018-04-29T22:39:58.013Z,41.20
2018-04-29T22:42:25.573Z,41.30
2018-04-29T22:44:53.140Z,40.90
2018-04-29T22:47:20.694Z,40.60
2018-04-29T22:49:48.921Z,40.90
2018-04-29T22:52:16.386Z,41.00
2018-04-29T22:54:43.849Z,40.60
2018-04-29T22:57:11.382Z,40.80
2018-04-29T22:59:38.797Z,40.80
2018-04-29T23:02:06.256Z,40.80
2018-04-29T23:04:34.485Z,40.40
2018-04-29T23:07:01.989Z,40.70
2018-04-29T23:09:29.551Z,41.20
2018-04-29T23:11:57.108Z,41.30
2018-04-29T23:14:24.565Z,41.20
2018-04-29T23:16:52.132Z,41.50
2018-04-29T23:19:19.692Z,41.10
2018-04-29T23:21:47.282Z,41.50
2018-04-29T23:24:15.533Z,41.60
2018-04-29T23:26:42.990Z,41.60
2018-04-29T23:29:11.217Z,41.90
2018-04-29T23:31:38.682Z,41.90
2018-04-29T23:34:06.137Z,42.00
2018-04-29T23:36:33.601Z,42.10
2018-04-29T23:39:01.066Z,42.20
2018-04-29T23:41:28.618Z,42.60
2018-04-29T23:43:56.068Z,42.30
2018-04-29T23:46:23.637Z,42.60
2018-04-29T23:48:51.085Z,42.70
2018-04-29T23:51:18.656Z,42.90
2018-04-29T23:53:46.105Z,42.70
2018-04-29T23:56:13.673Z,43.00
2018-04-29T23:58:41.168Z,43.00
